GORO2: Illinois River, Gore, OK

Data processed at Sun Aug 12 2018 23:34


All information presented herein is the property of the government of the United States of America and may be revised or deleted at any time without prior notice.
Dissemination of this information without the expressed written consent of the Public Affairs Office, Tulsa District U.S. Army Corps of Engineers is strictly prohibited.
These data are gathered electronically and, as presented, have not undergone any form of quality control. These data are not guaranteed to be valid or correct.
Go to home page.
Go to station list.

Upstream stations:

Downstream station:
Previous Day
Next Day
Current Day
    
SHEF ID:       GORO2     Illinois River near Gore, OK
STATION TYPE:  

               PRECIP PRECIP(A)     STAGE  STAGE(2)  RIV-FLOW  WTR-TEMP   DIS-OXY   VOLTAGE  BAT-LOAD
                   in        in        ft        ft       cfs         F      mg/l      volt      volt
              Ccp-Rev   Ccp-Rev   Ccp-Rev   Ccp-Rev   Ccp-Rev   Ccp-Rev   Ccp-Rev   Ccp-Rev   Ccp-Rev
(US/Central)
08/10 00:00      0.00      ----      6.66      9.89        99     61.74      5.80      ----     12.77
08/10 01:00      0.00      ----      6.61      9.89        88     61.93      5.58      ----     12.77
08/10 02:00      0.00      ----      6.57      9.89        80     62.10      5.23      ----     12.71
08/10 03:00      0.00      ----      6.54      9.89        75     62.17      4.90      ----     12.71
08/10 04:00      0.00      ----      6.52      9.89        71     62.19      4.70      ----     12.71
08/10 05:00      0.00      ----      6.51      9.89        69     62.13      4.55      ----     12.71
08/10 06:00      0.00      ----      6.49      9.89        66     62.10      4.59      ----     12.71
08/10 07:00      0.00      ----      6.49      9.89        66     62.04      4.52      ----     12.65
08/10 08:00      0.00      ----      6.48      9.89        64     62.20      4.61      ----     12.71
08/10 09:00      0.00      ----      6.47      9.89        63     62.91      5.26      ----     12.71
08/10 10:00      0.00      ----      6.47      9.89        63     64.60      6.73      ----     12.83
08/10 11:00      0.00      ----      6.46      9.89        61     66.97      7.48      ----     13.07
08/10 12:00      0.00      ----      6.46      9.89        61     70.29      8.26      ----     13.24
08/10 13:00      0.00      ----      6.46      9.89        61     72.93      8.56      ----     13.24
08/10 14:00      0.00      ----     10.43      9.89      2421     64.08      8.67      ----      ----
08/10 15:00      0.00      ----     11.61      9.89      3957     61.23      6.47      ----      ----
08/10 16:00      0.00      ----     11.77      9.89      4193     60.64      6.11      ----      ----
08/10 17:00      0.00      ----     11.81      9.89      4253     60.30      6.00      ----      ----
08/10 18:00      0.00      ----     11.83      9.89      4283     60.17      6.02      ----      ----
08/10 19:00      0.00      ----      9.87      9.89      1843     60.49      6.14      ----      ----
08/10 20:00      0.00      ----      7.87      9.89       503     60.85      6.39      ----     12.83
08/10 21:00      0.00      ----      7.23      9.89       254     61.14      6.22      ----     12.83
08/10 22:00      0.00      ----      6.93      9.89       166     61.30      6.03      ----     12.77
08/10 23:00      0.00      ----      6.76      9.89       123     61.57      5.97      ----     12.77